sensor_id;sensor_type;location;lat;lon;timestamp;pressure;altitude;pressure_sealevel;temperature;humidity
67803;BME280;54601;51.378;-1.342;2022-12-01T00:01:27;101487.91;;;17.39;31.41
67803;BME280;54601;51.378;-1.342;2022-12-01T00:03:53;101488.86;;;17.68;31.37
67803;BME280;54601;51.378;-1.342;2022-12-01T00:06:19;101486.86;;;17.36;31.41
67803;BME280;54601;51.378;-1.342;2022-12-01T00:08:43;101489.07;;;17.49;31.59
67803;BME280;54601;51.378;-1.342;2022-12-01T00:11:10;101491.09;;;17.32;31.38
67803;BME280;54601;51.378;-1.342;2022-12-01T00:13:34;101490.53;;;17.28;31.57
67803;BME280;54601;51.378;-1.342;2022-12-01T00:18:24;101487.66;;;17.24;31.58
67803;BME280;54601;51.378;-1.342;2022-12-01T00:20:49;101485.23;;;17.41;31.39
67803;BME280;54601;51.378;-1.342;2022-12-01T00:23:14;101485.28;;;17.31;31.54
67803;BME280;54601;51.378;-1.342;2022-12-01T00:25:40;101482.96;;;17.18;31.69
67803;BME280;54601;51.378;-1.342;2022-12-01T00:28:05;101477.45;;;17.40;31.35
67803;BME280;54601;51.378;-1.342;2022-12-01T00:30:30;101469.04;;;17.30;31.55
67803;BME280;54601;51.378;-1.342;2022-12-01T00:32:56;101463.52;;;17.31;31.52
67803;BME280;54601;51.378;-1.342;2022-12-01T00:35:21;101459.84;;;17.64;31.32
67803;BME280;54601;51.378;-1.342;2022-12-01T00:37:46;101461.55;;;17.34;31.42
67803;BME280;54601;51.378;-1.342;2022-12-01T00:40:12;101466.20;;;17.31;31.52
67803;BME280;54601;51.378;-1.342;2022-12-01T00:42:37;101464.87;;;17.32;31.38
67803;BME280;54601;51.378;-1.342;2022-12-01T00:45:03;101462.74;;;17.39;31.35
67803;BME280;54601;51.378;-1.342;2022-12-01T00:47:27;101462.13;;;17.33;31.34
67803;BME280;54601;51.378;-1.342;2022-12-01T00:49:53;101461.49;;;17.39;31.28
67803;BME280;54601;51.378;-1.342;2022-12-01T00:52:19;101458.91;;;17.32;31.29
67803;BME280;54601;51.378;-1.342;2022-12-01T00:54:43;101457.74;;;17.58;31.20
67803;BME280;54601;51.378;-1.342;2022-12-01T00:57:11;101457.38;;;17.02;31.30
67803;BME280;54601;51.378;-1.342;2022-12-01T00:59:34;101457.03;;;17.26;31.38
67803;BME280;54601;51.378;-1.342;2022-12-01T01:01:59;101458.62;;;17.53;30.97
67803;BME280;54601;51.378;-1.342;2022-12-01T01:04:24;101459.96;;;17.25;31.25
67803;BME280;54601;51.378;-1.342;2022-12-01T01:06:50;101455.84;;;17.31;31.17
67803;BME280;54601;51.378;-1.342;2022-12-01T01:09:15;101455.14;;;17.30;31.06
67803;BME280;54601;51.378;-1.342;2022-12-01T01:11:40;101457.71;;;17.30;31.11
67803;BME280;54601;51.378;-1.342;2022-12-01T01:14:06;101458.88;;;17.31;31.13
67803;BME280;54601;51.378;-1.342;2022-12-01T01:16:31;101457.68;;;17.34;31.10
67803;BME280;54601;51.378;-1.342;2022-12-01T01:18:57;101459.61;;;17.13;31.30
67803;BME280;54601;51.378;-1.342;2022-12-01T01:21:21;101463.28;;;17.27;31.00
67803;BME280;54601;51.378;-1.342;2022-12-01T01:23:47;101473.78;;;17.32;31.07
67803;BME280;54601;51.378;-1.342;2022-12-01T01:26:14;101478.82;;;17.33;30.97
67803;BME280;54601;51.378;-1.342;2022-12-01T01:28:37;101483.99;;;17.19;31.15
67803;BME280;54601;51.378;-1.342;2022-12-01T01:31:04;101487.66;;;17.27;31.09
67803;BME280;54601;51.378;-1.342;2022-12-01T01:33:29;101494.77;;;17.17;31.10
67803;BME280;54601;51.378;-1.342;2022-12-01T01:35:56;101496.11;;;17.36;31.08
67803;BME280;54601;51.378;-1.342;2022-12-01T01:38:18;101493.14;;;17.20;31.14
67803;BME280;54601;51.378;-1.342;2022-12-01T01:40:44;101489.06;;;17.22;30.98
67803;BME280;54601;51.378;-1.342;2022-12-01T01:43:14;101487.69;;;17.15;31.02
67803;BME280;54601;51.378;-1.342;2022-12-01T01:45:34;101486.38;;;17.61;31.05
67803;BME280;54601;51.378;-1.342;2022-12-01T01:48:00;101489.59;;;16.98;30.91
67803;BME280;54601;51.378;-1.342;2022-12-01T01:50:27;101491.15;;;17.04;31.12
67803;BME280;54601;51.378;-1.342;2022-12-01T01:52:53;101489.72;;;16.96;30.91
67803;BME280;54601;51.378;-1.342;2022-12-01T01:55:16;101490.01;;;17.35;31.13
67803;BME280;54601;51.378;-1.342;2022-12-01T01:57:41;101490.94;;;17.17;31.03
67803;BME280;54601;51.378;-1.342;2022-12-01T02:00:10;101491.67;;;17.21;30.93
67803;BME280;54601;51.378;-1.342;2022-12-01T02:02:32;101494.13;;;17.17;30.96
67803;BME280;54601;51.378;-1.342;2022-12-01T02:05:00;101495.59;;;17.13;30.96
67803;BME280;54601;51.378;-1.342;2022-12-01T02:07:22;101504.59;;;17.12;30.97
67803;BME280;54601;51.378;-1.342;2022-12-01T02:09:47;101509.18;;;17.12;30.95
67803;BME280;54601;51.378;-1.342;2022-12-01T02:12:22;101502.98;;;17.33;31.07
67803;BME280;54601;51.378;-1.342;2022-12-01T02:17:11;101492.08;;;17.22;30.83
67803;BME280;54601;51.378;-1.342;2022-12-01T02:22:02;101486.07;;;17.09;30.90
67803;BME280;54601;51.378;-1.342;2022-12-01T02:26:48;101483.80;;;17.15;30.92
67803;BME280;54601;51.378;-1.342;2022-12-01T02:29:25;101486.01;;;17.16;30.79
67803;BME280;54601;51.378;-1.342;2022-12-01T02:31:40;101486.01;;;17.33;30.89
67803;BME280;54601;51.378;-1.342;2022-12-01T02:34:07;101479.80;;;17.08;30.93
67803;BME280;54601;51.378;-1.342;2022-12-01T02:36:31;101478.59;;;17.12;30.80
67803;BME280;54601;51.378;-1.342;2022-12-01T02:38:55;101473.05;;;17.02;30.97
67803;BME280;54601;51.378;-1.342;2022-12-01T02:41:18;101467.79;;;17.03;30.88
67803;BME280;54601;51.378;-1.342;2022-12-01T02:43:44;101469.92;;;17.05;30.88
67803;BME280;54601;51.378;-1.342;2022-12-01T02:46:10;101462.93;;;17.01;30.88
67803;BME280;54601;51.378;-1.342;2022-12-01T02:48:34;101455.34;;;17.18;30.90
67803;BME280;54601;51.378;-1.342;2022-12-01T02:51:03;101455.43;;;17.16;30.95
67803;BME280;54601;51.378;-1.342;2022-12-01T02:53:22;101454.76;;;16.98;30.84
67803;BME280;54601;51.378;-1.342;2022-12-01T02:55:50;101451.96;;;17.04;30.77
67803;BME280;54601;51.378;-1.342;2022-12-01T02:58:13;101446.63;;;16.91;30.90
67803;BME280;54601;51.378;-1.342;2022-12-01T03:00:38;101445.65;;;16.92;30.88
67803;BME280;54601;51.378;-1.342;2022-12-01T03:03:20;101443.26;;;16.91;30.86
67803;BME280;54601;51.378;-1.342;2022-12-01T03:05:36;101441.65;;;17.37;30.81
67803;BME280;54601;51.378;-1.342;2022-12-01T03:07:59;101441.57;;;16.92;30.83
67803;BME280;54601;51.378;-1.342;2022-12-01T03:10:24;101439.65;;;16.94;30.81
67803;BME280;54601;51.378;-1.342;2022-12-01T03:12:52;101438.89;;;17.02;30.94
67803;BME280;54601;51.378;-1.342;2022-12-01T03:15:17;101439.96;;;16.99;30.68
67803;BME280;54601;51.378;-1.342;2022-12-01T03:17:39;101440.17;;;16.99;30.59
67803;BME280;54601;51.378;-1.342;2022-12-01T03:20:05;101437.61;;;17.34;30.69
67803;BME280;54601;51.378;-1.342;2022-12-01T03:22:32;101434.34;;;16.94;30.67
67803;BME280;54601;51.378;-1.342;2022-12-01T03:24:54;101430.65;;;16.72;31.05
67803;BME280;54601;51.378;-1.342;2022-12-01T03:27:20;101431.45;;;17.02;30.51
67803;BME280;54601;51.378;-1.342;2022-12-01T03:29:45;101433.12;;;16.93;30.69
67803;BME280;54601;51.378;-1.342;2022-12-01T03:32:11;101437.85;;;16.93;30.69
67803;BME280;54601;51.378;-1.342;2022-12-01T03:34:36;101443.24;;;16.92;30.66
67803;BME280;54601;51.378;-1.342;2022-12-01T03:37:01;101448.32;;;16.91;30.68
67803;BME280;54601;51.378;-1.342;2022-12-01T03:39:26;101458.66;;;16.96;30.57
67803;BME280;54601;51.378;-1.342;2022-12-01T03:41:52;101466.48;;;16.94;30.65
67803;BME280;54601;51.378;-1.342;2022-12-01T03:44:18;101476.29;;;17.17;30.50
67803;BME280;54601;51.378;-1.342;2022-12-01T03:46:44;101483.27;;;16.91;30.64
67803;BME280;54601;51.378;-1.342;2022-12-01T03:49:04;101486.20;;;16.87;30.74
67803;BME280;54601;51.378;-1.342;2022-12-01T03:51:35;101490.68;;;16.94;30.45
67803;BME280;54601;51.378;-1.342;2022-12-01T03:53:59;101492.26;;;17.37;30.48
67803;BME280;54601;51.378;-1.342;2022-12-01T03:56:23;101497.84;;;16.94;30.43
67803;BME280;54601;51.378;-1.342;2022-12-01T03:58:48;101501.62;;;16.85;30.53
67803;BME280;54601;51.378;-1.342;2022-12-01T04:01:11;101502.11;;;17.10;30.55
67803;BME280;54601;51.378;-1.342;2022-12-01T04:03:37;101500.42;;;17.11;30.43
67803;BME280;54601;51.378;-1.342;2022-12-01T04:06:02;101501.89;;;17.11;30.46
67803;BME280;54601;51.378;-1.342;2022-12-01T04:08:27;101503.29;;;16.97;30.71
67803;BME280;54601;51.378;-1.342;2022-12-01T04:10:52;101503.67;;;16.81;30.56
67803;BME280;54601;51.378;-1.342;2022-12-01T04:13:18;101504.83;;;16.68;30.76
67803;BME280;54601;51.378;-1.342;2022-12-01T04:15:43;101506.39;;;16.57;30.53
67803;BME280;54601;51.378;-1.342;2022-12-01T04:18:08;101499.78;;;16.89;30.39
67803;BME280;54601;51.378;-1.342;2022-12-01T04:20:34;101496.71;;;16.79;30.62
67803;BME280;54601;51.378;-1.342;2022-12-01T04:22:59;101496.94;;;16.79;30.59
67803;BME280;54601;51.378;-1.342;2022-12-01T04:25:24;101501.39;;;16.91;30.38
67803;BME280;54601;51.378;-1.342;2022-12-01T04:27:50;101501.13;;;17.28;30.43
67803;BME280;54601;51.378;-1.342;2022-12-01T04:30:16;101501.82;;;16.86;30.41
67803;BME280;54601;51.378;-1.342;2022-12-01T04:32:42;101503.31;;;16.95;30.59
67803;BME280;54601;51.378;-1.342;2022-12-01T04:35:07;101506.41;;;16.99;30.54
67803;BME280;54601;51.378;-1.342;2022-12-01T04:37:31;101505.75;;;16.85;30.42
67803;BME280;54601;51.378;-1.342;2022-12-01T04:39:56;101502.53;;;16.76;30.55
67803;BME280;54601;51.378;-1.342;2022-12-01T04:42:22;101505.92;;;16.82;30.43
67803;BME280;54601;51.378;-1.342;2022-12-01T04:44:47;101506.18;;;16.93;30.61
67803;BME280;54601;51.378;-1.342;2022-12-01T04:47:12;101506.38;;;17.00;30.45
67803;BME280;54601;51.378;-1.342;2022-12-01T04:49:38;101507.04;;;17.17;30.54
67803;BME280;54601;51.378;-1.342;2022-12-01T04:52:03;101506.67;;;16.92;30.60
67803;BME280;54601;51.378;-1.342;2022-12-01T04:54:29;101503.36;;;17.03;30.43
67803;BME280;54601;51.378;-1.342;2022-12-01T04:56:54;101498.94;;;16.79;30.49
67803;BME280;54601;51.378;-1.342;2022-12-01T04:59:19;101496.56;;;16.69;30.68
67803;BME280;54601;51.378;-1.342;2022-12-01T05:01:44;101505.92;;;16.69;30.56
67803;BME280;54601;51.378;-1.342;2022-12-01T05:04:10;101502.70;;;16.69;30.92
67803;BME280;54601;51.378;-1.342;2022-12-01T05:06:35;101503.20;;;16.72;30.45
67803;BME280;54601;51.378;-1.342;2022-12-01T05:09:01;101507.16;;;16.93;30.49
67803;BME280;54601;51.378;-1.342;2022-12-01T05:11:27;101508.88;;;16.59;30.64
67803;BME280;54601;51.378;-1.342;2022-12-01T05:13:51;101511.32;;;17.19;30.46
67803;BME280;54601;51.378;-1.342;2022-12-01T05:16:18;101514.24;;;16.92;30.46
67803;BME280;54601;51.378;-1.342;2022-12-01T05:18:42;101515.50;;;16.92;30.48
67803;BME280;54601;51.378;-1.342;2022-12-01T05:21:09;101517.10;;;17.08;30.50
67803;BME280;54601;51.378;-1.342;2022-12-01T05:23:34;101519.39;;;17.15;30.47
67803;BME280;54601;51.378;-1.342;2022-12-01T05:25:58;101522.13;;;16.88;30.48
67803;BME280;54601;51.378;-1.342;2022-12-01T05:28:25;101529.47;;;16.84;30.58
67803;BME280;54601;51.378;-1.342;2022-12-01T05:30:49;101534.79;;;16.83;30.55
67803;BME280;54601;51.378;-1.342;2022-12-01T05:33:14;101533.20;;;16.88;30.53
67803;BME280;54601;51.378;-1.342;2022-12-01T05:35:39;101539.20;;;17.04;30.58
67803;BME280;54601;51.378;-1.342;2022-12-01T05:38:04;101535.53;;;16.54;30.67
67803;BME280;54601;51.378;-1.342;2022-12-01T05:40:29;101534.40;;;16.57;30.63
67803;BME280;54601;51.378;-1.342;2022-12-01T05:42:55;101536.73;;;16.56;30.65
67803;BME280;54601;51.378;-1.342;2022-12-01T05:45:20;101531.24;;;16.77;30.68
67803;BME280;54601;51.378;-1.342;2022-12-01T05:47:45;101530.99;;;16.72;30.72
67803;BME280;54601;51.378;-1.342;2022-12-01T05:50:11;101529.40;;;17.01;30.59
67803;BME280;54601;51.378;-1.342;2022-12-01T05:52:36;101531.43;;;17.00;30.72
67803;BME280;54601;51.378;-1.342;2022-12-01T05:55:02;101529.00;;;16.85;30.57
67803;BME280;54601;51.378;-1.342;2022-12-01T05:57:27;101531.87;;;16.51;30.65
67803;BME280;54601;51.378;-1.342;2022-12-01T05:59:52;101530.82;;;16.90;30.77
67803;BME280;54601;51.378;-1.342;2022-12-01T06:02:18;101530.44;;;16.60;30.57
67803;BME280;54601;51.378;-1.342;2022-12-01T06:04:43;101528.66;;;16.88;30.74
67803;BME280;54601;51.378;-1.342;2022-12-01T06:07:08;101525.54;;;16.69;30.70
67803;BME280;54601;51.378;-1.342;2022-12-01T06:09:34;101528.49;;;16.70;30.68
67803;BME280;54601;51.378;-1.342;2022-12-01T06:11:59;101526.37;;;16.95;30.61
67803;BME280;54601;51.378;-1.342;2022-12-01T06:14:24;101521.78;;;16.77;30.58
67803;BME280;54601;51.378;-1.342;2022-12-01T06:16:50;101521.48;;;16.48;30.72
67803;BME280;54601;51.378;-1.342;2022-12-01T06:19:15;101515.42;;;16.74;30.68
67803;BME280;54601;51.378;-1.342;2022-12-01T06:21:40;101510.96;;;16.94;30.63
67803;BME280;54601;51.378;-1.342;2022-12-01T06:24:06;101512.83;;;16.92;30.67
67803;BME280;54601;51.378;-1.342;2022-12-01T06:26:31;101513.39;;;16.81;30.55
67803;BME280;54601;51.378;-1.342;2022-12-01T06:28:56;101515.89;;;16.65;30.84
67803;BME280;54601;51.378;-1.342;2022-12-01T06:31:22;101516.59;;;16.62;30.51
67803;BME280;54601;51.378;-1.342;2022-12-01T06:33:47;101513.80;;;16.57;30.63
67803;BME280;54601;51.378;-1.342;2022-12-01T06:36:12;101514.20;;;16.80;30.67
67803;BME280;54601;51.378;-1.342;2022-12-01T06:38:38;101516.82;;;16.56;30.67
67803;BME280;54601;51.378;-1.342;2022-12-01T06:41:04;101513.41;;;16.84;30.59
67803;BME280;54601;51.378;-1.342;2022-12-01T06:43:29;101514.35;;;16.89;30.80
67803;BME280;54601;51.378;-1.342;2022-12-01T06:45:54;101512.37;;;17.08;30.66
67803;BME280;54601;51.378;-1.342;2022-12-01T06:48:19;101512.07;;;16.68;30.60
67803;BME280;54601;51.378;-1.342;2022-12-01T06:50:45;101516.75;;;16.78;30.80
67803;BME280;54601;51.378;-1.342;2022-12-01T06:53:10;101522.59;;;15.21;30.61
67803;BME280;54601;51.378;-1.342;2022-12-01T06:55:36;101526.74;;;17.51;29.99
67803;BME280;54601;51.378;-1.342;2022-12-01T06:58:01;101526.81;;;16.97;30.23
67803;BME280;54601;51.378;-1.342;2022-12-01T07:00:26;101533.43;;;16.90;30.42
67803;BME280;54601;51.378;-1.342;2022-12-01T07:02:52;101538.86;;;17.25;30.51
67803;BME280;54601;51.378;-1.342;2022-12-01T07:05:17;101541.03;;;16.81;30.57
67803;BME280;54601;51.378;-1.342;2022-12-01T07:07:42;101544.67;;;17.21;30.60
67803;BME280;54601;51.378;-1.342;2022-12-01T07:10:09;101540.57;;;16.85;30.58
67803;BME280;54601;51.378;-1.342;2022-12-01T07:12:33;101538.53;;;17.03;30.57
67803;BME280;54601;51.378;-1.342;2022-12-01T07:14:58;101537.59;;;17.12;30.49
67803;BME280;54601;51.378;-1.342;2022-12-01T07:17:23;101536.47;;;16.96;30.65
67803;BME280;54601;51.378;-1.342;2022-12-01T07:19:49;101540.01;;;16.92;30.40
67803;BME280;54601;51.378;-1.342;2022-12-01T07:22:14;101543.90;;;16.86;30.54
67803;BME280;54601;51.378;-1.342;2022-12-01T07:24:39;101550.65;;;16.84;30.58
67803;BME280;54601;51.378;-1.342;2022-12-01T07:27:05;101556.92;;;17.07;30.61
67803;BME280;54601;51.378;-1.342;2022-12-01T07:29:30;101559.71;;;16.88;30.51
67803;BME280;54601;51.378;-1.342;2022-12-01T07:31:55;101559.36;;;16.93;30.47
67803;BME280;54601;51.378;-1.342;2022-12-01T07:34:20;101559.61;;;16.95;30.47
67803;BME280;54601;51.378;-1.342;2022-12-01T07:36:46;101559.77;;;17.11;30.56
67803;BME280;54601;51.378;-1.342;2022-12-01T07:39:11;101559.93;;;17.46;30.47
67803;BME280;54601;51.378;-1.342;2022-12-01T07:41:36;101566.11;;;16.86;30.67
67803;BME280;54601;51.378;-1.342;2022-12-01T07:44:02;101566.86;;;17.11;30.66
67803;BME280;54601;51.378;-1.342;2022-12-01T07:46:27;101560.08;;;17.16;30.57
67803;BME280;54601;51.378;-1.342;2022-12-01T07:48:53;101561.96;;;17.16;30.62
67803;BME280;54601;51.378;-1.342;2022-12-01T07:51:18;101568.93;;;17.26;30.47
67803;BME280;54601;51.378;-1.342;2022-12-01T07:53:44;101571.08;;;16.83;30.78
67803;BME280;54601;51.378;-1.342;2022-12-01T07:56:08;101575.72;;;17.11;30.48
67803;BME280;54601;51.378;-1.342;2022-12-01T07:58:34;101579.80;;;17.32;30.43
67803;BME280;54601;51.378;-1.342;2022-12-01T08:01:04;101580.36;;;16.98;30.50
67803;BME280;54601;51.378;-1.342;2022-12-01T08:03:24;101579.82;;;17.19;30.70
67803;BME280;54601;51.378;-1.342;2022-12-01T08:05:54;101580.21;;;17.34;30.47
67803;BME280;54601;51.378;-1.342;2022-12-01T08:08:15;101587.02;;;17.04;30.58
67803;BME280;54601;51.378;-1.342;2022-12-01T08:10:40;101590.65;;;17.00;30.60
67803;BME280;54601;51.378;-1.342;2022-12-01T08:13:05;101595.12;;;17.23;30.60
67803;BME280;54601;51.378;-1.342;2022-12-01T08:15:31;101599.94;;;17.47;30.59
67803;BME280;54601;51.378;-1.342;2022-12-01T08:17:59;101604.61;;;17.24;30.63
67803;BME280;54601;51.378;-1.342;2022-12-01T08:20:21;101609.81;;;17.03;30.60
67803;BME280;54601;51.378;-1.342;2022-12-01T08:22:47;101612.24;;;17.50;30.60
67803;BME280;54601;51.378;-1.342;2022-12-01T08:25:12;101611.51;;;17.07;30.56
67803;BME280;54601;51.378;-1.342;2022-12-01T08:27:37;101610.80;;;16.96;30.72
67803;BME280;54601;51.378;-1.342;2022-12-01T08:30:03;101611.91;;;17.07;30.60
67803;BME280;54601;51.378;-1.342;2022-12-01T08:32:28;101610.50;;;17.40;30.49
67803;BME280;54601;51.378;-1.342;2022-12-01T08:34:53;101612.11;;;16.94;30.83
67803;BME280;54601;51.378;-1.342;2022-12-01T08:37:18;101616.57;;;17.09;30.64
67803;BME280;54601;51.378;-1.342;2022-12-01T08:39:44;101617.61;;;17.26;30.72
67803;BME280;54601;51.378;-1.342;2022-12-01T08:42:09;101619.50;;;17.03;30.76
67803;BME280;54601;51.378;-1.342;2022-12-01T08:44:34;101621.35;;;17.07;30.70
67803;BME280;54601;51.378;-1.342;2022-12-01T08:46:59;101620.95;;;17.12;30.73
67803;BME280;54601;51.378;-1.342;2022-12-01T08:49:25;101619.71;;;17.31;30.80
67803;BME280;54601;51.378;-1.342;2022-12-01T08:51:50;101620.83;;;17.34;30.78
67803;BME280;54601;51.378;-1.342;2022-12-01T08:54:15;101623.99;;;17.56;30.79
67803;BME280;54601;51.378;-1.342;2022-12-01T08:56:43;101626.63;;;17.29;30.82
67803;BME280;54601;51.378;-1.342;2022-12-01T08:59:06;101627.65;;;17.10;30.81
67803;BME280;54601;51.378;-1.342;2022-12-01T09:01:31;101625.27;;;17.08;30.86
67803;BME280;54601;51.378;-1.342;2022-12-01T09:03:58;101620.98;;;16.99;30.92
67803;BME280;54601;51.378;-1.342;2022-12-01T09:06:22;101618.14;;;17.02;30.91
67803;BME280;54601;51.378;-1.342;2022-12-01T09:08:47;101621.63;;;17.30;30.89
67803;BME280;54601;51.378;-1.342;2022-12-01T09:11:17;101622.36;;;17.10;30.82
67803;BME280;54601;51.378;-1.342;2022-12-01T09:13:38;101625.31;;;17.18;30.71
67803;BME280;54601;51.378;-1.342;2022-12-01T09:16:04;101624.71;;;17.38;30.81
67803;BME280;54601;51.378;-1.342;2022-12-01T09:18:28;101623.53;;;17.40;30.78
67803;BME280;54601;51.378;-1.342;2022-12-01T09:20:54;101623.80;;;17.16;30.80
67803;BME280;54601;51.378;-1.342;2022-12-01T09:23:18;101625.40;;;17.19;30.74
67803;BME280;54601;51.378;-1.342;2022-12-01T09:25:44;101626.52;;;17.15;30.87
67803;BME280;54601;51.378;-1.342;2022-12-01T09:28:09;101629.12;;;17.58;30.89
67803;BME280;54601;51.378;-1.342;2022-12-01T09:30:35;101628.55;;;17.33;30.98
67803;BME280;54601;51.378;-1.342;2022-12-01T09:32:59;101634.86;;;17.24;30.69
67803;BME280;54601;51.378;-1.342;2022-12-01T09:35:25;101638.51;;;17.19;30.79
67803;BME280;54601;51.378;-1.342;2022-12-01T09:37:50;101644.94;;;17.19;30.86
67803;BME280;54601;51.378;-1.342;2022-12-01T09:40:15;101650.14;;;17.25;30.88
67803;BME280;54601;51.378;-1.342;2022-12-01T09:42:41;101648.00;;;17.22;30.84
67803;BME280;54601;51.378;-1.342;2022-12-01T09:45:08;101649.88;;;17.25;30.85
67803;BME280;54601;51.378;-1.342;2022-12-01T09:47:33;101647.49;;;17.24;30.86
67803;BME280;54601;51.378;-1.342;2022-12-01T09:49:59;101645.90;;;17.21;30.88
67803;BME280;54601;51.378;-1.342;2022-12-01T09:52:24;101648.73;;;17.51;30.78
67803;BME280;54601;51.378;-1.342;2022-12-01T09:54:47;101651.11;;;17.27;30.79
67803;BME280;54601;51.378;-1.342;2022-12-01T09:57:16;101654.66;;;17.27;30.85
67803;BME280;54601;51.378;-1.342;2022-12-01T09:59:39;101654.23;;;17.57;30.76
67803;BME280;54601;51.378;-1.342;2022-12-01T10:02:12;101653.91;;;17.33;30.72
67803;BME280;54601;51.378;-1.342;2022-12-01T10:04:32;101660.53;;;17.57;30.70
67803;BME280;54601;51.378;-1.342;2022-12-01T10:06:57;101663.22;;;17.28;30.85
67803;BME280;54601;51.378;-1.342;2022-12-01T10:09:22;101657.85;;;17.62;30.54
67803;BME280;54601;51.378;-1.342;2022-12-01T10:11:45;101653.91;;;17.36;30.70
67803;BME280;54601;51.378;-1.342;2022-12-01T10:14:12;101652.96;;;17.38;30.74
67803;BME280;54601;51.378;-1.342;2022-12-01T10:16:37;101652.58;;;17.39;30.71
67803;BME280;54601;51.378;-1.342;2022-12-01T10:19:03;101652.87;;;17.31;30.81
67803;BME280;54601;51.378;-1.342;2022-12-01T10:21:37;101652.98;;;17.37;30.72
67803;BME280;54601;51.378;-1.342;2022-12-01T10:24:01;101650.06;;;17.63;30.63
67803;BME280;54601;51.378;-1.342;2022-12-01T10:26:20;101643.83;;;17.63;30.66
67803;BME280;54601;51.378;-1.342;2022-12-01T10:28:52;101643.95;;;17.39;30.68
67803;BME280;54601;51.378;-1.342;2022-12-01T10:31:13;101643.41;;;17.38;30.74
67803;BME280;54601;51.378;-1.342;2022-12-01T10:33:36;101642.80;;;17.50;30.54
67803;BME280;54601;51.378;-1.342;2022-12-01T10:35:57;101637.33;;;17.63;30.74
67803;BME280;54601;51.378;-1.342;2022-12-01T10:38:24;101639.79;;;17.40;30.72
67803;BME280;54601;51.378;-1.342;2022-12-01T10:40:48;101636.49;;;17.51;30.78
67803;BME280;54601;51.378;-1.342;2022-12-01T10:43:12;101631.17;;;17.32;30.85
67803;BME280;54601;51.378;-1.342;2022-12-01T10:45:40;101626.95;;;17.52;30.61
67803;BME280;54601;51.378;-1.342;2022-12-01T10:48:10;101625.36;;;17.48;30.57
67803;BME280;54601;51.378;-1.342;2022-12-01T10:50:28;101625.27;;;17.48;30.63
67803;BME280;54601;51.378;-1.342;2022-12-01T10:52:53;101623.83;;;17.15;30.71
67803;BME280;54601;51.378;-1.342;2022-12-01T10:55:24;101618.20;;;17.59;30.51
67803;BME280;54601;51.378;-1.342;2022-12-01T10:57:44;101611.52;;;17.47;30.69
67803;BME280;54601;51.378;-1.342;2022-12-01T11:00:19;101609.41;;;17.52;30.62
67803;BME280;54601;51.378;-1.342;2022-12-01T11:02:34;101606.95;;;17.59;30.58
67803;BME280;54601;51.378;-1.342;2022-12-01T11:05:01;101602.86;;;17.57;30.58
67803;BME280;54601;51.378;-1.342;2022-12-01T11:07:27;101598.48;;;17.44;30.71
67803;BME280;54601;51.378;-1.342;2022-12-01T11:10:01;101597.47;;;17.56;30.64
67803;BME280;54601;51.378;-1.342;2022-12-01T11:12:16;101593.50;;;17.60;30.65
67803;BME280;54601;51.378;-1.342;2022-12-01T11:14:44;101591.34;;;17.67;30.40
67803;BME280;54601;51.378;-1.342;2022-12-01T11:19:32;101585.09;;;17.55;30.57
67803;BME280;54601;51.378;-1.342;2022-12-01T11:21:58;101579.50;;;17.31;30.61
67803;BME280;54601;51.378;-1.342;2022-12-01T11:24:28;101577.39;;;17.56;30.54
67803;BME280;54601;51.378;-1.342;2022-12-01T11:26:47;101574.41;;;17.50;30.74
67803;BME280;54601;51.378;-1.342;2022-12-01T11:29:21;101571.08;;;17.55;30.71
67803;BME280;54601;51.378;-1.342;2022-12-01T11:31:39;101569.34;;;17.59;30.54
67803;BME280;54601;51.378;-1.342;2022-12-01T11:34:03;101566.09;;;17.58;30.66
67803;BME280;54601;51.378;-1.342;2022-12-01T11:36:35;101564.71;;;17.64;30.56
67803;BME280;54601;51.378;-1.342;2022-12-01T11:38:57;101561.20;;;17.61;30.60
67803;BME280;54601;51.378;-1.342;2022-12-01T11:41:26;101555.56;;;17.48;30.81
67803;BME280;54601;51.378;-1.342;2022-12-01T11:43:45;101555.63;;;17.62;30.64
67803;BME280;54601;51.378;-1.342;2022-12-01T11:46:09;101553.57;;;17.58;30.64
67803;BME280;54601;51.378;-1.342;2022-12-01T11:48:35;101554.24;;;17.65;30.53
67803;BME280;54601;51.378;-1.342;2022-12-01T11:51:03;101550.08;;;17.65;30.60
67803;BME280;54601;51.378;-1.342;2022-12-01T11:53:26;101549.63;;;17.40;30.52
67803;BME280;54601;51.378;-1.342;2022-12-01T11:55:50;101549.32;;;18.05;30.60
67803;BME280;54601;51.378;-1.342;2022-12-01T11:58:15;101550.04;;;17.66;30.61
67803;BME280;54601;51.378;-1.342;2022-12-01T12:00:45;101550.51;;;17.66;30.56
67803;BME280;54601;51.378;-1.342;2022-12-01T12:03:18;101549.06;;;17.76;30.43
67803;BME280;54601;51.378;-1.342;2022-12-01T12:05:40;101547.64;;;17.69;30.55
67803;BME280;54601;51.378;-1.342;2022-12-01T12:08:00;101545.84;;;17.53;30.68
67803;BME280;54601;51.378;-1.342;2022-12-01T12:10:29;101545.70;;;17.68;30.56
67803;BME280;54601;51.378;-1.342;2022-12-01T12:12:57;101544.43;;;17.70;30.54
67803;BME280;54601;51.378;-1.342;2022-12-01T12:15:19;101545.00;;;17.65;30.60
67803;BME280;54601;51.378;-1.342;2022-12-01T12:17:46;101543.42;;;17.32;30.63
67803;BME280;54601;51.378;-1.342;2022-12-01T12:22:35;101544.88;;;17.71;30.52
67803;BME280;54601;51.378;-1.342;2022-12-01T12:25:02;101544.37;;;17.62;30.60
67803;BME280;54601;51.378;-1.342;2022-12-01T12:27:25;101540.39;;;17.64;30.61
67803;BME280;54601;51.378;-1.342;2022-12-01T12:29:56;101536.91;;;17.61;30.68
67803;BME280;54601;51.378;-1.342;2022-12-01T12:32:21;101532.04;;;17.77;30.38
67803;BME280;54601;51.378;-1.342;2022-12-01T12:34:44;101527.69;;;17.73;30.52
67803;BME280;54601;51.378;-1.342;2022-12-01T12:37:08;101527.16;;;17.76;30.52
67803;BME280;54601;51.378;-1.342;2022-12-01T12:39:33;101528.09;;;17.42;30.63
67803;BME280;54601;51.378;-1.342;2022-12-01T12:41:52;101527.60;;;17.68;30.63
67803;BME280;54601;51.378;-1.342;2022-12-01T12:44:30;101525.31;;;17.64;30.72